Terminal Aerodrome Forecast
Issued by NWS

Home | Current Version | Previous Version | Text Only | Print | Product List | Glossary On
Versions: 1 2 3 4 5 6 7 8 9 10 11 12
000
FTUS45 KGGW 251123
TAFOLF
TAF
KOLF 251123Z 2512/2612 VRB05KT P6SM BKN230 WS020/24035KT
     FM251500 24009KT P6SM BKN240
     FM251900 27014KT P6SM SCT220
     FM252100 31020KT P6SM SCT200
     FM252300 34019KT P6SM BKN110
     FM260500 33009KT P6SM FEW110
     FM261100 30006KT P6SM FEW100=

USA.gov is the U.S. government's official web portal to all federal, state and local government web resources and services.